sensor_id;sensor_type;location;lat;lon;timestamp;temperature;humidity
24458;DHT22;12629;50.860;5.714;2022-11-25T00:01:44;9.70;99.90
24458;DHT22;12629;50.860;5.714;2022-11-25T00:04:11;9.80;99.90
24458;DHT22;12629;50.860;5.714;2022-11-25T00:06:38;9.80;99.90
24458;DHT22;12629;50.860;5.714;2022-11-25T00:09:07;9.80;99.90
24458;DHT22;12629;50.860;5.714;2022-11-25T00:11:38;9.90;99.90
24458;DHT22;12629;50.860;5.714;2022-11-25T00:14:06;9.80;99.90
24458;DHT22;12629;50.860;5.714;2022-11-25T00:16:35;9.80;99.90
24458;DHT22;12629;50.860;5.714;2022-11-25T00:19:02;9.90;99.90
24458;DHT22;12629;50.860;5.714;2022-11-25T00:21:32;9.90;99.90
24458;DHT22;12629;50.860;5.714;2022-11-25T00:24:01;9.90;99.90
24458;DHT22;12629;50.860;5.714;2022-11-25T00:26:29;10.00;99.90
24458;DHT22;12629;50.860;5.714;2022-11-25T00:29:00;10.00;99.90
24458;DHT22;12629;50.860;5.714;2022-11-25T00:31:28;10.00;99.90
24458;DHT22;12629;50.860;5.714;2022-11-25T00:33:56;10.10;99.90
24458;DHT22;12629;50.860;5.714;2022-11-25T00:36:25;10.10;99.90
24458;DHT22;12629;50.860;5.714;2022-11-25T00:38:54;10.10;99.90
24458;DHT22;12629;50.860;5.714;2022-11-25T00:41:22;10.00;99.90
24458;DHT22;12629;50.860;5.714;2022-11-25T00:44:09;10.00;99.90
24458;DHT22;12629;50.860;5.714;2022-11-25T00:46:55;10.00;99.90
24458;DHT22;12629;50.860;5.714;2022-11-25T00:49:22;10.10;99.90
24458;DHT22;12629;50.860;5.714;2022-11-25T00:51:49;10.20;99.90
24458;DHT22;12629;50.860;5.714;2022-11-25T00:54:16;10.10;99.90
24458;DHT22;12629;50.860;5.714;2022-11-25T00:56:43;10.10;99.90
24458;DHT22;12629;50.860;5.714;2022-11-25T00:59:12;10.20;99.90
24458;DHT22;12629;50.860;5.714;2022-11-25T01:01:39;10.20;99.90
24458;DHT22;12629;50.860;5.714;2022-11-25T01:04:07;10.20;99.90
24458;DHT22;12629;50.860;5.714;2022-11-25T01:06:35;10.10;99.90
24458;DHT22;12629;50.860;5.714;2022-11-25T01:09:03;10.20;99.90
24458;DHT22;12629;50.860;5.714;2022-11-25T01:11:30;10.20;99.90
24458;DHT22;12629;50.860;5.714;2022-11-25T01:13:58;10.20;99.90
24458;DHT22;12629;50.860;5.714;2022-11-25T01:16:27;10.20;99.90
24458;DHT22;12629;50.860;5.714;2022-11-25T01:18:54;10.20;99.90
24458;DHT22;12629;50.860;5.714;2022-11-25T01:21:22;10.20;99.90
24458;DHT22;12629;50.860;5.714;2022-11-25T01:23:51;10.30;99.90
24458;DHT22;12629;50.860;5.714;2022-11-25T01:26:20;10.20;99.90
24458;DHT22;12629;50.860;5.714;2022-11-25T01:28:52;10.20;99.90
24458;DHT22;12629;50.860;5.714;2022-11-25T01:31:21;10.30;99.90
24458;DHT22;12629;50.860;5.714;2022-11-25T01:33:53;10.30;99.90
24458;DHT22;12629;50.860;5.714;2022-11-25T01:36:21;10.30;99.90
24458;DHT22;12629;50.860;5.714;2022-11-25T01:38:50;10.20;99.90
24458;DHT22;12629;50.860;5.714;2022-11-25T01:41:18;10.20;99.90
24458;DHT22;12629;50.860;5.714;2022-11-25T01:44:01;10.20;99.90
24458;DHT22;12629;50.860;5.714;2022-11-25T01:46:30;10.20;99.90
24458;DHT22;12629;50.860;5.714;2022-11-25T01:49:06;10.10;99.90
24458;DHT22;12629;50.860;5.714;2022-11-25T01:51:40;10.10;99.90
24458;DHT22;12629;50.860;5.714;2022-11-25T01:54:10;10.10;99.90
24458;DHT22;12629;50.860;5.714;2022-11-25T01:56:41;10.10;99.90
24458;DHT22;12629;50.860;5.714;2022-11-25T01:59:11;10.10;99.90
24458;DHT22;12629;50.860;5.714;2022-11-25T02:01:38;10.20;99.90
24458;DHT22;12629;50.860;5.714;2022-11-25T02:04:10;10.10;99.90
24458;DHT22;12629;50.860;5.714;2022-11-25T02:06:43;10.10;99.90
24458;DHT22;12629;50.860;5.714;2022-11-25T02:09:11;10.10;99.90
24458;DHT22;12629;50.860;5.714;2022-11-25T02:11:41;10.20;99.90
24458;DHT22;12629;50.860;5.714;2022-11-25T02:14:11;10.10;99.90
24458;DHT22;12629;50.860;5.714;2022-11-25T02:16:39;10.00;99.90
24458;DHT22;12629;50.860;5.714;2022-11-25T02:19:12;10.00;99.90
24458;DHT22;12629;50.860;5.714;2022-11-25T02:21:46;9.90;99.90
24458;DHT22;12629;50.860;5.714;2022-11-25T02:24:19;10.00;99.90
24458;DHT22;12629;50.860;5.714;2022-11-25T02:26:50;10.10;99.90
24458;DHT22;12629;50.860;5.714;2022-11-25T02:29:17;10.10;99.90
24458;DHT22;12629;50.860;5.714;2022-11-25T02:31:44;10.10;99.90
24458;DHT22;12629;50.860;5.714;2022-11-25T02:34:14;10.20;99.90
24458;DHT22;12629;50.860;5.714;2022-11-25T02:36:41;10.30;99.90
24458;DHT22;12629;50.860;5.714;2022-11-25T02:39:08;10.30;99.90
24458;DHT22;12629;50.860;5.714;2022-11-25T02:41:39;10.30;99.90
24458;DHT22;12629;50.860;5.714;2022-11-25T02:44:09;10.20;99.90
24458;DHT22;12629;50.860;5.714;2022-11-25T02:46:36;10.10;99.90
24458;DHT22;12629;50.860;5.714;2022-11-25T02:49:03;9.90;99.90
24458;DHT22;12629;50.860;5.714;2022-11-25T02:51:31;9.70;99.90
24458;DHT22;12629;50.860;5.714;2022-11-25T02:53:59;9.60;99.90
24458;DHT22;12629;50.860;5.714;2022-11-25T02:56:28;9.40;99.90
24458;DHT22;12629;50.860;5.714;2022-11-25T02:58:55;9.30;99.90
24458;DHT22;12629;50.860;5.714;2022-11-25T03:01:24;9.30;99.90
24458;DHT22;12629;50.860;5.714;2022-11-25T03:03:51;9.30;99.90
24458;DHT22;12629;50.860;5.714;2022-11-25T03:06:18;9.30;99.90
24458;DHT22;12629;50.860;5.714;2022-11-25T03:08:46;9.30;99.90
24458;DHT22;12629;50.860;5.714;2022-11-25T03:11:13;9.20;99.90
24458;DHT22;12629;50.860;5.714;2022-11-25T03:13:40;9.20;99.90
24458;DHT22;12629;50.860;5.714;2022-11-25T03:16:07;9.20;99.90
24458;DHT22;12629;50.860;5.714;2022-11-25T03:18:36;9.20;99.90
24458;DHT22;12629;50.860;5.714;2022-11-25T03:21:04;9.20;99.90
24458;DHT22;12629;50.860;5.714;2022-11-25T03:23:32;9.10;99.90
24458;DHT22;12629;50.860;5.714;2022-11-25T03:26:03;9.20;99.90
24458;DHT22;12629;50.860;5.714;2022-11-25T03:28:30;9.10;99.90
24458;DHT22;12629;50.860;5.714;2022-11-25T03:30:57;9.10;99.90
24458;DHT22;12629;50.860;5.714;2022-11-25T03:33:24;9.00;99.90
24458;DHT22;12629;50.860;5.714;2022-11-25T03:35:53;9.00;99.90
24458;DHT22;12629;50.860;5.714;2022-11-25T03:38:20;9.00;99.90
24458;DHT22;12629;50.860;5.714;2022-11-25T03:40:47;9.00;99.90
24458;DHT22;12629;50.860;5.714;2022-11-25T03:43:15;9.00;99.90
24458;DHT22;12629;50.860;5.714;2022-11-25T03:45:42;8.90;99.90
24458;DHT22;12629;50.860;5.714;2022-11-25T03:48:09;8.90;99.90
24458;DHT22;12629;50.860;5.714;2022-11-25T03:50:36;8.80;99.90
24458;DHT22;12629;50.860;5.714;2022-11-25T03:53:05;8.80;99.90
24458;DHT22;12629;50.860;5.714;2022-11-25T03:55:32;8.80;99.90
24458;DHT22;12629;50.860;5.714;2022-11-25T03:57:59;8.80;99.90
24458;DHT22;12629;50.860;5.714;2022-11-25T04:00:26;8.80;99.90
24458;DHT22;12629;50.860;5.714;2022-11-25T04:02:53;8.80;99.90
24458;DHT22;12629;50.860;5.714;2022-11-25T04:05:21;8.80;99.90
24458;DHT22;12629;50.860;5.714;2022-11-25T04:07:48;8.70;99.90
24458;DHT22;12629;50.860;5.714;2022-11-25T04:10:17;8.60;99.90
24458;DHT22;12629;50.860;5.714;2022-11-25T04:12:44;8.50;99.90
24458;DHT22;12629;50.860;5.714;2022-11-25T04:15:14;8.50;99.90
24458;DHT22;12629;50.860;5.714;2022-11-25T04:17:41;8.50;99.90
24458;DHT22;12629;50.860;5.714;2022-11-25T04:20:10;8.50;99.90
24458;DHT22;12629;50.860;5.714;2022-11-25T04:22:37;8.50;99.90
24458;DHT22;12629;50.860;5.714;2022-11-25T04:25:05;8.60;99.90
24458;DHT22;12629;50.860;5.714;2022-11-25T04:27:34;8.70;99.90
24458;DHT22;12629;50.860;5.714;2022-11-25T04:30:01;8.70;99.90
24458;DHT22;12629;50.860;5.714;2022-11-25T04:32:28;8.60;99.90
24458;DHT22;12629;50.860;5.714;2022-11-25T04:34:56;8.60;99.90
24458;DHT22;12629;50.860;5.714;2022-11-25T04:37:23;8.60;99.90
24458;DHT22;12629;50.860;5.714;2022-11-25T04:39:50;8.70;99.90
24458;DHT22;12629;50.860;5.714;2022-11-25T04:42:17;8.70;99.90
24458;DHT22;12629;50.860;5.714;2022-11-25T04:45:05;8.70;99.90
24458;DHT22;12629;50.860;5.714;2022-11-25T04:47:33;8.60;99.90
24458;DHT22;12629;50.860;5.714;2022-11-25T04:50:00;8.60;99.90
24458;DHT22;12629;50.860;5.714;2022-11-25T04:52:28;8.60;99.90
24458;DHT22;12629;50.860;5.714;2022-11-25T04:54:55;8.60;99.90
24458;DHT22;12629;50.860;5.714;2022-11-25T04:57:22;8.60;99.90
24458;DHT22;12629;50.860;5.714;2022-11-25T04:59:49;8.60;99.90
24458;DHT22;12629;50.860;5.714;2022-11-25T05:02:20;8.60;99.90
24458;DHT22;12629;50.860;5.714;2022-11-25T05:04:49;8.60;99.90
24458;DHT22;12629;50.860;5.714;2022-11-25T05:07:18;8.60;99.90
24458;DHT22;12629;50.860;5.714;2022-11-25T05:09:45;8.60;99.90
24458;DHT22;12629;50.860;5.714;2022-11-25T05:12:15;8.70;99.90
24458;DHT22;12629;50.860;5.714;2022-11-25T05:14:42;8.60;99.90
24458;DHT22;12629;50.860;5.714;2022-11-25T05:17:12;8.60;99.90
24458;DHT22;12629;50.860;5.714;2022-11-25T05:19:41;8.50;99.90
24458;DHT22;12629;50.860;5.714;2022-11-25T05:22:09;8.50;99.90
24458;DHT22;12629;50.860;5.714;2022-11-25T05:24:37;8.40;99.90
24458;DHT22;12629;50.860;5.714;2022-11-25T05:27:04;8.30;99.90
24458;DHT22;12629;50.860;5.714;2022-11-25T05:29:31;8.40;99.90
24458;DHT22;12629;50.860;5.714;2022-11-25T05:31:59;8.40;99.90
24458;DHT22;12629;50.860;5.714;2022-11-25T05:34:26;8.30;99.90
24458;DHT22;12629;50.860;5.714;2022-11-25T05:36:55;8.40;99.90
24458;DHT22;12629;50.860;5.714;2022-11-25T05:39:22;8.30;99.90
24458;DHT22;12629;50.860;5.714;2022-11-25T05:41:49;8.40;99.90
24458;DHT22;12629;50.860;5.714;2022-11-25T05:44:16;8.40;99.90
24458;DHT22;12629;50.860;5.714;2022-11-25T05:46:44;8.50;99.90
24458;DHT22;12629;50.860;5.714;2022-11-25T05:49:11;8.50;99.90
24458;DHT22;12629;50.860;5.714;2022-11-25T05:51:38;8.50;99.90
24458;DHT22;12629;50.860;5.714;2022-11-25T05:54:07;8.40;99.90
24458;DHT22;12629;50.860;5.714;2022-11-25T05:56:34;8.40;99.90
24458;DHT22;12629;50.860;5.714;2022-11-25T05:59:02;8.30;99.90
24458;DHT22;12629;50.860;5.714;2022-11-25T06:01:29;8.30;99.90
24458;DHT22;12629;50.860;5.714;2022-11-25T06:03:59;8.30;99.90
24458;DHT22;12629;50.860;5.714;2022-11-25T06:06:26;8.40;99.90
24458;DHT22;12629;50.860;5.714;2022-11-25T06:08:54;8.30;99.90
24458;DHT22;12629;50.860;5.714;2022-11-25T06:11:22;8.30;99.90
24458;DHT22;12629;50.860;5.714;2022-11-25T06:13:50;8.30;99.90
24458;DHT22;12629;50.860;5.714;2022-11-25T06:16:19;8.30;99.90
24458;DHT22;12629;50.860;5.714;2022-11-25T06:18:47;8.30;99.90
24458;DHT22;12629;50.860;5.714;2022-11-25T06:21:15;8.30;99.90
24458;DHT22;12629;50.860;5.714;2022-11-25T06:23:42;8.30;99.90
24458;DHT22;12629;50.860;5.714;2022-11-25T06:26:13;8.30;99.90
24458;DHT22;12629;50.860;5.714;2022-11-25T06:28:42;8.30;99.90
24458;DHT22;12629;50.860;5.714;2022-11-25T06:31:11;8.20;99.90
24458;DHT22;12629;50.860;5.714;2022-11-25T06:33:39;8.20;99.90
24458;DHT22;12629;50.860;5.714;2022-11-25T06:36:07;8.20;99.90
24458;DHT22;12629;50.860;5.714;2022-11-25T06:38:38;8.10;99.90
24458;DHT22;12629;50.860;5.714;2022-11-25T06:41:06;8.10;99.90
24458;DHT22;12629;50.860;5.714;2022-11-25T06:43:33;8.10;99.90
24458;DHT22;12629;50.860;5.714;2022-11-25T06:46:03;8.10;99.90
24458;DHT22;12629;50.860;5.714;2022-11-25T06:48:31;8.00;99.90
24458;DHT22;12629;50.860;5.714;2022-11-25T06:51:00;8.00;99.90
24458;DHT22;12629;50.860;5.714;2022-11-25T06:53:29;8.10;99.90
24458;DHT22;12629;50.860;5.714;2022-11-25T06:56:07;8.00;99.90
24458;DHT22;12629;50.860;5.714;2022-11-25T06:58:35;7.90;99.90
24458;DHT22;12629;50.860;5.714;2022-11-25T07:01:06;7.90;99.90
24458;DHT22;12629;50.860;5.714;2022-11-25T07:03:34;7.90;99.90
24458;DHT22;12629;50.860;5.714;2022-11-25T07:06:01;7.90;99.90
24458;DHT22;12629;50.860;5.714;2022-11-25T07:08:29;7.80;99.90
24458;DHT22;12629;50.860;5.714;2022-11-25T07:11:02;8.00;99.90
24458;DHT22;12629;50.860;5.714;2022-11-25T07:13:30;8.00;99.90
24458;DHT22;12629;50.860;5.714;2022-11-25T07:16:00;8.10;99.90
24458;DHT22;12629;50.860;5.714;2022-11-25T07:18:30;8.00;99.90
24458;DHT22;12629;50.860;5.714;2022-11-25T07:21:02;8.10;99.90
24458;DHT22;12629;50.860;5.714;2022-11-25T07:23:29;8.10;99.90
24458;DHT22;12629;50.860;5.714;2022-11-25T07:26:01;8.10;99.90
24458;DHT22;12629;50.860;5.714;2022-11-25T07:28:29;8.10;99.90
24458;DHT22;12629;50.860;5.714;2022-11-25T07:31:03;8.10;99.90
24458;DHT22;12629;50.860;5.714;2022-11-25T07:33:32;8.20;99.90
24458;DHT22;12629;50.860;5.714;2022-11-25T07:36:01;8.20;99.90
24458;DHT22;12629;50.860;5.714;2022-11-25T07:38:28;8.10;99.90
24458;DHT22;12629;50.860;5.714;2022-11-25T07:40:56;8.10;99.90
24458;DHT22;12629;50.860;5.714;2022-11-25T07:43:28;8.10;99.90
24458;DHT22;12629;50.860;5.714;2022-11-25T07:45:55;8.10;99.90
24458;DHT22;12629;50.860;5.714;2022-11-25T07:48:23;8.20;99.90
24458;DHT22;12629;50.860;5.714;2022-11-25T07:50:51;8.20;99.90
24458;DHT22;12629;50.860;5.714;2022-11-25T07:53:18;8.20;99.90
24458;DHT22;12629;50.860;5.714;2022-11-25T07:55:46;8.30;99.90
24458;DHT22;12629;50.860;5.714;2022-11-25T07:58:13;8.30;99.90
24458;DHT22;12629;50.860;5.714;2022-11-25T08:00:40;8.40;99.90
24458;DHT22;12629;50.860;5.714;2022-11-25T08:03:07;8.70;99.90
24458;DHT22;12629;50.860;5.714;2022-11-25T08:05:34;8.90;99.90
24458;DHT22;12629;50.860;5.714;2022-11-25T08:08:04;9.10;99.90
24458;DHT22;12629;50.860;5.714;2022-11-25T08:10:31;9.30;99.90
24458;DHT22;12629;50.860;5.714;2022-11-25T08:12:58;9.50;99.90
24458;DHT22;12629;50.860;5.714;2022-11-25T08:15:27;9.90;99.90
24458;DHT22;12629;50.860;5.714;2022-11-25T08:17:54;10.10;99.90
24458;DHT22;12629;50.860;5.714;2022-11-25T08:20:21;10.30;99.90
24458;DHT22;12629;50.860;5.714;2022-11-25T08:22:48;10.40;99.90
24458;DHT22;12629;50.860;5.714;2022-11-25T08:25:17;10.80;99.90
24458;DHT22;12629;50.860;5.714;2022-11-25T08:27:44;10.90;99.90
24458;DHT22;12629;50.860;5.714;2022-11-25T08:30:12;11.00;99.90
24458;DHT22;12629;50.860;5.714;2022-11-25T08:32:40;11.30;99.90
24458;DHT22;12629;50.860;5.714;2022-11-25T08:35:07;11.40;99.90
24458;DHT22;12629;50.860;5.714;2022-11-25T08:37:35;11.20;99.90
24458;DHT22;12629;50.860;5.714;2022-11-25T08:40:02;11.50;99.90
24458;DHT22;12629;50.860;5.714;2022-11-25T08:42:31;11.70;99.90
24458;DHT22;12629;50.860;5.714;2022-11-25T08:44:58;11.90;99.90
24458;DHT22;12629;50.860;5.714;2022-11-25T08:47:26;12.00;99.90
24458;DHT22;12629;50.860;5.714;2022-11-25T08:49:54;12.30;99.90
24458;DHT22;12629;50.860;5.714;2022-11-25T08:52:21;12.50;99.90
24458;DHT22;12629;50.860;5.714;2022-11-25T08:54:49;12.20;99.90
24458;DHT22;12629;50.860;5.714;2022-11-25T08:57:16;11.90;99.90
24458;DHT22;12629;50.860;5.714;2022-11-25T08:59:45;12.10;99.90
24458;DHT22;12629;50.860;5.714;2022-11-25T09:02:14;12.50;99.90
24458;DHT22;12629;50.860;5.714;2022-11-25T09:04:41;12.60;99.90
24458;DHT22;12629;50.860;5.714;2022-11-25T09:07:09;12.40;99.90
24458;DHT22;12629;50.860;5.714;2022-11-25T09:09:36;11.80;99.90
24458;DHT22;12629;50.860;5.714;2022-11-25T09:12:04;11.30;99.90
24458;DHT22;12629;50.860;5.714;2022-11-25T09:14:31;11.40;99.90
24458;DHT22;12629;50.860;5.714;2022-11-25T09:17:00;11.30;99.90
24458;DHT22;12629;50.860;5.714;2022-11-25T09:19:28;11.10;99.90
24458;DHT22;12629;50.860;5.714;2022-11-25T09:21:55;10.80;99.90
24458;DHT22;12629;50.860;5.714;2022-11-25T09:24:22;10.90;99.90
24458;DHT22;12629;50.860;5.714;2022-11-25T09:26:49;11.30;99.90
24458;DHT22;12629;50.860;5.714;2022-11-25T09:29:17;11.70;99.90
24458;DHT22;12629;50.860;5.714;2022-11-25T09:31:44;12.10;99.90
24458;DHT22;12629;50.860;5.714;2022-11-25T09:34:13;12.80;99.90
24458;DHT22;12629;50.860;5.714;2022-11-25T09:36:43;13.00;99.90
24458;DHT22;12629;50.860;5.714;2022-11-25T09:39:11;12.80;99.90
24458;DHT22;12629;50.860;5.714;2022-11-25T09:41:55;12.70;99.90
24458;DHT22;12629;50.860;5.714;2022-11-25T09:44:52;12.60;99.90
24458;DHT22;12629;50.860;5.714;2022-11-25T09:47:49;11.90;99.90
24458;DHT22;12629;50.860;5.714;2022-11-25T09:50:40;11.80;99.90
24458;DHT22;12629;50.860;5.714;2022-11-25T09:53:22;12.00;99.90
24458;DHT22;12629;50.860;5.714;2022-11-25T09:55:54;12.30;99.90
24458;DHT22;12629;50.860;5.714;2022-11-25T09:58:29;12.10;99.90
24458;DHT22;12629;50.860;5.714;2022-11-25T10:00:59;11.40;99.90
24458;DHT22;12629;50.860;5.714;2022-11-25T10:03:36;12.10;99.90
24458;DHT22;12629;50.860;5.714;2022-11-25T10:06:14;12.20;99.90
24458;DHT22;12629;50.860;5.714;2022-11-25T10:08:43;11.90;99.90
24458;DHT22;12629;50.860;5.714;2022-11-25T10:11:21;11.70;99.90
24458;DHT22;12629;50.860;5.714;2022-11-25T10:13:56;10.90;99.90
24458;DHT22;12629;50.860;5.714;2022-11-25T10:16:41;10.70;99.90
24458;DHT22;12629;50.860;5.714;2022-11-25T10:19:16;10.40;99.90
24458;DHT22;12629;50.860;5.714;2022-11-25T10:21:47;10.70;99.90
24458;DHT22;12629;50.860;5.714;2022-11-25T10:24:15;11.40;99.90
24458;DHT22;12629;50.860;5.714;2022-11-25T10:26:44;11.80;99.90
24458;DHT22;12629;50.860;5.714;2022-11-25T10:29:23;12.10;99.90
24458;DHT22;12629;50.860;5.714;2022-11-25T10:31:58;12.50;99.90
24458;DHT22;12629;50.860;5.714;2022-11-25T10:34:33;12.90;99.90
24458;DHT22;12629;50.860;5.714;2022-11-25T10:37:04;13.10;99.90
24458;DHT22;12629;50.860;5.714;2022-11-25T10:39:33;13.00;99.90
24458;DHT22;12629;50.860;5.714;2022-11-25T10:42:04;12.80;99.90
24458;DHT22;12629;50.860;5.714;2022-11-25T10:44:34;12.70;99.90
24458;DHT22;12629;50.860;5.714;2022-11-25T10:47:15;12.50;99.90
24458;DHT22;12629;50.860;5.714;2022-11-25T10:49:53;12.40;99.90
24458;DHT22;12629;50.860;5.714;2022-11-25T10:52:28;13.10;99.90
24458;DHT22;12629;50.860;5.714;2022-11-25T10:54:57;13.00;99.90
24458;DHT22;12629;50.860;5.714;2022-11-25T10:57:33;12.70;99.90
24458;DHT22;12629;50.860;5.714;2022-11-25T11:00:02;12.30;99.90
24458;DHT22;12629;50.860;5.714;2022-11-25T11:02:37;12.10;99.90
24458;DHT22;12629;50.860;5.714;2022-11-25T11:05:22;12.00;99.90
24458;DHT22;12629;50.860;5.714;2022-11-25T11:08:12;12.30;99.90
24458;DHT22;12629;50.860;5.714;2022-11-25T11:10:42;12.70;99.90
24458;DHT22;12629;50.860;5.714;2022-11-25T11:13:20;12.50;99.90
24458;DHT22;12629;50.860;5.714;2022-11-25T11:15:48;13.00;99.90
24458;DHT22;12629;50.860;5.714;2022-11-25T11:18:23;12.90;99.90
24458;DHT22;12629;50.860;5.714;2022-11-25T11:20:52;13.20;99.90
24458;DHT22;12629;50.860;5.714;2022-11-25T11:23:21;12.60;99.90
24458;DHT22;12629;50.860;5.714;2022-11-25T11:26:00;12.00;99.90
24458;DHT22;12629;50.860;5.714;2022-11-25T11:28:31;11.60;99.90
24458;DHT22;12629;50.860;5.714;2022-11-25T11:31:06;11.20;99.90
24458;DHT22;12629;50.860;5.714;2022-11-25T11:33:37;10.90;99.90
24458;DHT22;12629;50.860;5.714;2022-11-25T11:36:20;10.80;99.90
24458;DHT22;12629;50.860;5.714;2022-11-25T11:38:55;10.70;99.90
24458;DHT22;12629;50.860;5.714;2022-11-25T11:41:37;10.70;99.90
24458;DHT22;12629;50.860;5.714;2022-11-25T11:44:11;10.70;99.90
24458;DHT22;12629;50.860;5.714;2022-11-25T11:46:52;11.00;99.90
24458;DHT22;12629;50.860;5.714;2022-11-25T11:49:34;11.60;99.90
24458;DHT22;12629;50.860;5.714;2022-11-25T11:52:10;11.70;99.90
24458;DHT22;12629;50.860;5.714;2022-11-25T11:54:44;12.60;99.90
24458;DHT22;12629;50.860;5.714;2022-11-25T11:57:15;13.20;99.90
24458;DHT22;12629;50.860;5.714;2022-11-25T11:59:47;12.80;99.90
24458;DHT22;12629;50.860;5.714;2022-11-25T12:02:48;12.10;99.90
24458;DHT22;12629;50.860;5.714;2022-11-25T12:05:19;12.60;99.90
24458;DHT22;12629;50.860;5.714;2022-11-25T12:07:55;13.90;99.90
24458;DHT22;12629;50.860;5.714;2022-11-25T12:10:30;13.90;99.90
24458;DHT22;12629;50.860;5.714;2022-11-25T12:13:07;13.20;99.90
24458;DHT22;12629;50.860;5.714;2022-11-25T12:15:42;12.80;99.90
24458;DHT22;12629;50.860;5.714;2022-11-25T12:18:30;12.20;99.90
24458;DHT22;12629;50.860;5.714;2022-11-25T12:21:01;11.90;99.90
24458;DHT22;12629;50.860;5.714;2022-11-25T12:23:38;11.80;99.90
24458;DHT22;12629;50.860;5.714;2022-11-25T12:26:11;11.60;99.90
24458;DHT22;12629;50.860;5.714;2022-11-25T12:28:45;11.40;99.90
24458;DHT22;12629;50.860;5.714;2022-11-25T12:31:19;11.30;99.90
24458;DHT22;12629;50.860;5.714;2022-11-25T12:33:55;11.10;99.90
24458;DHT22;12629;50.860;5.714;2022-11-25T12:36:30;11.10;99.90
24458;DHT22;12629;50.860;5.714;2022-11-25T12:39:01;11.20;99.90
24458;DHT22;12629;50.860;5.714;2022-11-25T12:41:38;11.30;99.90
24458;DHT22;12629;50.860;5.714;2022-11-25T12:44:13;11.40;99.90
24458;DHT22;12629;50.860;5.714;2022-11-25T12:46:43;11.50;99.90
24458;DHT22;12629;50.860;5.714;2022-11-25T12:49:16;11.60;99.90
24458;DHT22;12629;50.860;5.714;2022-11-25T12:52:08;11.50;99.90
24458;DHT22;12629;50.860;5.714;2022-11-25T12:54:52;11.50;99.90
24458;DHT22;12629;50.860;5.714;2022-11-25T13:00:40;11.50;99.90
24458;DHT22;12629;50.860;5.714;2022-11-25T13:03:30;11.60;99.90
24458;DHT22;12629;50.860;5.714;2022-11-25T13:06:28;11.70;99.90
24458;DHT22;12629;50.860;5.714;2022-11-25T13:09:13;11.80;99.90
24458;DHT22;12629;50.860;5.714;2022-11-25T13:11:49;11.70;99.90
24458;DHT22;12629;50.860;5.714;2022-11-25T13:14:25;11.70;99.90
24458;DHT22;12629;50.860;5.714;2022-11-25T13:16:55;11.70;99.90
24458;DHT22;12629;50.860;5.714;2022-11-25T13:19:24;11.70;99.90
24458;DHT22;12629;50.860;5.714;2022-11-25T13:21:59;11.60;99.90
24458;DHT22;12629;50.860;5.714;2022-11-25T13:24:30;11.60;99.90
24458;DHT22;12629;50.860;5.714;2022-11-25T13:26:59;11.60;99.90
24458;DHT22;12629;50.860;5.714;2022-11-25T13:29:57;11.70;99.90
24458;DHT22;12629;50.860;5.714;2022-11-25T13:32:39;11.50;99.90
24458;DHT22;12629;50.860;5.714;2022-11-25T13:35:36;11.40;99.90
24458;DHT22;12629;50.860;5.714;2022-11-25T13:40:56;11.60;99.90
24458;DHT22;12629;50.860;5.714;2022-11-25T13:43:24;11.70;99.90
24458;DHT22;12629;50.860;5.714;2022-11-25T13:45:52;11.70;99.90
24458;DHT22;12629;50.860;5.714;2022-11-25T13:48:23;11.70;99.90
24458;DHT22;12629;50.860;5.714;2022-11-25T13:51:14;11.50;99.90
24458;DHT22;12629;50.860;5.714;2022-11-25T13:53:49;11.40;99.90
24458;DHT22;12629;50.860;5.714;2022-11-25T13:56:25;11.40;99.90
24458;DHT22;12629;50.860;5.714;2022-11-25T13:59:18;11.30;99.90
24458;DHT22;12629;50.860;5.714;2022-11-25T14:01:52;11.20;99.90
24458;DHT22;12629;50.860;5.714;2022-11-25T14:04:38;11.10;99.90
24458;DHT22;12629;50.860;5.714;2022-11-25T14:07:14;11.10;99.90
24458;DHT22;12629;50.860;5.714;2022-11-25T14:10:02;11.10;99.90
24458;DHT22;12629;50.860;5.714;2022-11-25T14:13:01;11.00;99.90
24458;DHT22;12629;50.860;5.714;2022-11-25T14:15:52;11.00;99.90
24458;DHT22;12629;50.860;5.714;2022-11-25T14:18:53;11.00;99.90
24458;DHT22;12629;50.860;5.714;2022-11-25T14:21:41;11.10;99.90
24458;DHT22;12629;50.860;5.714;2022-11-25T14:24:21;11.20;99.90
24458;DHT22;12629;50.860;5.714;2022-11-25T14:26:53;11.20;99.90
24458;DHT22;12629;50.860;5.714;2022-11-25T14:29:24;11.20;99.90
24458;DHT22;12629;50.860;5.714;2022-11-25T14:31:56;11.10;99.90
24458;DHT22;12629;50.860;5.714;2022-11-25T14:34:29;11.10;99.90
24458;DHT22;12629;50.860;5.714;2022-11-25T14:37:04;11.10;99.90
24458;DHT22;12629;50.860;5.714;2022-11-25T14:39:37;11.10;99.90
24458;DHT22;12629;50.860;5.714;2022-11-25T14:42:09;11.00;99.90
24458;DHT22;12629;50.860;5.714;2022-11-25T14:44:39;11.00;99.90
24458;DHT22;12629;50.860;5.714;2022-11-25T14:47:11;10.90;99.90
